Time;durP1;ratioP1;P1;durP2;ratioP2;P2;SDS_P1;SDS_P2;PMS_P1;PMS_P2;Temp;Humidity;BMP_temperature;BMP_pressure;BME280_temperature;BME280_humidity;BME280_pressure;Samples;Min_cycle;Max_cycle;Signal;HPM_P1;HPM_P2
2021/07/01 00:02:35;;;;;;;5.22;1.00;;;;;;;22.95;41.60;99991.19;5091060;27;20934;-79
2021/07/01 00:05:21;;;;;;;4.57;1.20;;;;;;;23.03;41.53;99995.56;5071070;28;20386;-80
2021/07/01 00:08:05;;;;;;;3.92;1.15;;;;;;;23.17;41.30;99986.16;5071071;28;20390;-80
2021/07/01 00:10:51;;;;;;;2.85;1.05;;;;;;;23.24;41.25;99986.94;5070857;28;20393;-79
2021/07/01 00:13:34;;;;;;;3.65;1.00;;;;;;;23.33;41.45;99988.34;5111429;27;20866;-80
2021/07/01 00:16:17;;;;;;;4.85;1.20;;;;;;;23.36;41.32;99982.41;5111388;27;20398;-79
2021/07/01 00:18:56;;;;;;;5.45;1.23;;;;;;;23.40;41.65;99989.13;5071301;28;20391;-78
2021/07/01 00:21:40;;;;;;;4.35;1.17;;;;;;;23.45;41.42;99991.19;5071138;28;20392;-80
2021/07/01 00:24:25;;;;;;;4.78;1.30;;;;;;;23.50;41.63;99994.94;5070856;28;20383;-78
2021/07/01 00:27:09;;;;;;;7.60;1.33;;;;;;;23.41;41.99;100004.50;5070905;28;20395;-79
2021/07/01 00:29:54;;;;;;;6.25;1.48;;;;;;;22.74;45.79;100010.72;5111687;27;20688;-79
2021/07/01 00:32:39;;;;;;;6.20;1.13;;;;;;;22.56;46.83;100008.72;5071147;28;20396;-79
2021/07/01 00:35:23;;;;;;;5.15;1.60;;;;;;;22.48;48.17;100019.09;5111735;27;20390;-79
2021/07/01 00:38:02;;;;;;;6.75;1.33;;;;;;;22.38;48.58;100016.84;5071222;28;20391;-78
2021/07/01 00:40:46;;;;;;;10.70;2.20;;;;;;;22.39;49.30;100028.63;5071137;28;20393;-80
2021/07/01 00:43:29;;;;;;;7.10;1.92;;;;;;;22.31;50.00;100020.66;5070388;28;20405;-79
2021/07/01 00:46:33;;;;;;;9.60;1.77;;;;;;;22.32;50.22;100023.16;5070530;28;20386;-80
2021/07/01 00:49:14;;;;;;;5.72;1.58;;;;;;;22.27;50.72;100022.16;5071130;28;20394;-80
2021/07/01 00:52:11;;;;;;;6.78;1.88;;;;;;;22.29;50.62;100026.34;5111361;27;20380;-79
2021/07/01 00:54:54;;;;;;;8.30;2.45;;;;;;;22.05;51.64;100012.59;5111702;27;20486;-80
2021/07/01 00:57:39;;;;;;;6.63;1.80;;;;;;;21.88;51.84;100014.94;5071058;28;20382;-80
2021/07/01 01:03:05;;;;;;;7.18;1.83;;;;;;;22.00;51.73;100018.69;5111339;27;20388;-79
2021/07/01 01:05:45;;;;;;;8.45;2.03;;;;;;;22.08;51.65;100018.44;5069891;28;20408;-79
2021/07/01 01:08:30;;;;;;;4.72;1.33;;;;;;;22.17;51.35;100019.88;5111699;27;20379;-79
2021/07/01 01:11:15;;;;;;;6.68;1.60;;;;;;;22.23;51.26;100031.84;5111680;27;20380;-79
2021/07/01 01:13:56;;;;;;;6.68;1.80;;;;;;;22.28;51.07;100038.34;5111866;27;20443;-79
2021/07/01 01:16:48;;;;;;;9.40;2.05;;;;;;;22.31;51.26;100031.59;5071247;28;20744;-80
2021/07/01 01:19:28;;;;;;;7.75;1.50;;;;;;;22.29;51.56;100034.56;5071216;28;20390;-79
2021/07/01 01:22:14;;;;;;;8.43;1.63;;;;;;;22.06;51.79;100033.38;5071089;28;20394;-79
2021/07/01 01:24:57;;;;;;;8.82;1.58;;;;;;;22.13;51.51;100035.03;5071239;28;20869;-80
2021/07/01 01:27:41;;;;;;;5.53;1.73;;;;;;;22.20;51.42;100040.47;5111479;27;20379;-79
2021/07/01 01:30:26;;;;;;;6.00;1.75;;;;;;;22.21;51.27;100043.00;5070796;28;20393;-79
2021/07/01 01:33:27;;;;;;;7.07;1.95;;;;;;;22.30;51.02;100049.03;5111612;27;20380;-79
2021/07/01 01:36:13;;;;;;;11.20;1.63;;;;;;;22.31;50.95;100037.06;5131984;27;20330;-79
2021/07/01 01:38:54;;;;;;;12.95;2.60;;;;;;;22.21;51.32;100040.28;5071232;28;20386;-79
2021/07/01 01:41:55;;;;;;;7.43;1.80;;;;;;;22.24;51.38;100039.00;5111733;27;20398;-79
2021/07/01 01:44:40;;;;;;;7.15;1.95;;;;;;;22.19;51.25;100033.34;5071132;28;20386;-80
2021/07/01 01:47:24;;;;;;;6.25;2.42;;;;;;;22.09;51.93;100039.28;5111683;27;20380;-80
2021/07/01 01:50:10;;;;;;;11.90;2.40;;;;;;;21.98;52.39;100034.47;5132187;27;20408;-80
2021/07/01 01:52:51;;;;;;;5.68;1.33;;;;;;;21.97;52.05;100043.75;5111873;27;20384;-79
2021/07/01 01:55:37;;;;;;;11.85;2.00;;;;;;;22.01;52.38;100034.03;5070650;28;20387;-79
2021/07/01 01:58:21;;;;;;;9.38;2.30;;;;;;;22.01;52.96;100040.34;5070851;28;20398;-79
2021/07/01 02:01:24;;;;;;;6.05;1.63;;;;;;;21.98;53.21;100031.72;5111738;27;20391;-79
2021/07/01 02:04:13;;;;;;;6.10;1.63;;;;;;;21.96;53.41;100033.84;5111475;27;20395;-79
2021/07/01 02:07:02;;;;;;;8.13;2.45;;;;;;;21.78;54.01;100025.47;5070813;28;20393;-79
2021/07/01 02:10:11;;;;;;;5.10;1.48;;;;;;;21.81;53.87;100045.00;5070835;28;20395;-78
2021/07/01 02:12:52;;;;;;;6.53;1.77;;;;;;;21.78;54.05;100041.84;5071271;28;20410;-79
2021/07/01 02:15:37;;;;;;;6.85;1.88;;;;;;;21.81;54.18;100046.91;5071091;28;20389;-78
2021/07/01 02:18:21;;;;;;;9.07;1.77;;;;;;;21.76;54.48;100043.97;5071115;28;20390;-79
2021/07/01 02:21:06;;;;;;;8.93;2.25;;;;;;;21.82;54.44;100043.13;5111392;27;20870;-79
2021/07/01 02:23:50;;;;;;;8.13;1.70;;;;;;;21.78;54.58;100053.63;5111767;27;20387;-79
2021/07/01 02:26:31;;;;;;;7.57;1.85;;;;;;;21.70;55.49;100044.84;5111866;27;20388;-79
2021/07/01 02:29:17;;;;;;;8.73;2.40;;;;;;;21.67;55.54;100050.72;5071040;28;20378;-80
2021/07/01 02:32:33;;;;;;;6.97;2.03;;;;;;;21.73;54.78;100038.94;5070689;28;20401;-81
2021/07/01 02:35:14;;;;;;;4.43;1.70;;;;;;;21.75;55.34;100037.66;5111819;27;20384;-79
2021/07/01 02:38:17;;;;;;;8.73;1.98;;;;;;;21.77;55.43;100041.03;5070816;28;20726;-80
2021/07/01 02:40:58;;;;;;;7.47;1.70;;;;;;;21.82;55.16;100046.69;5111729;27;20661;-79
2021/07/01 02:43:48;;;;;;;11.48;2.28;;;;;;;21.66;55.78;100038.09;5071279;28;20383;-79
2021/07/01 02:46:55;;;;;;;8.75;1.85;;;;;;;21.63;56.26;100053.03;5070554;28;20403;-78
2021/07/01 02:49:46;;;;;;;5.70;1.95;;;;;;;21.59;56.30;100053.69;5071221;28;20383;-80
2021/07/01 02:52:30;;;;;;;8.13;2.10;;;;;;;21.39;56.90;100049.09;5111155;27;20418;-80
2021/07/01 02:55:13;;;;;;;14.75;2.55;;;;;;;21.33;56.75;100046.38;5070835;28;20397;-79
2021/07/01 02:57:56;;;;;;;13.20;2.33;;;;;;;21.35;56.85;100044.28;5071108;28;20399;-79
2021/07/01 03:00:58;;;;;;;9.23;2.03;;;;;;;21.46;56.51;100046.34;5070519;28;20405;-78
2021/07/01 03:03:40;;;;;;;13.65;2.42;;;;;;;21.47;56.37;100045.31;5071191;28;20393;-77
2021/07/01 03:06:31;;;;;;;10.52;2.47;;;;;;;21.51;56.93;100053.88;5070817;28;20390;-78
2021/07/01 03:09:16;;;;;;;18.20;3.00;;;;;;;21.40;57.02;100048.03;5070944;28;20393;-78
2021/07/01 03:12:01;;;;;;;9.85;2.22;;;;;;;21.46;57.04;100056.41;5111445;27;20387;-78
2021/07/01 03:14:49;;;;;;;14.98;2.72;;;;;;;21.37;57.37;100050.34;5071029;28;20420;-80
2021/07/01 03:17:29;;;;;;;15.48;3.13;;;;;;;21.19;57.14;100051.00;5071236;28;20413;-78
2021/07/01 03:20:13;;;;;;;13.65;2.67;;;;;;;21.22;56.94;100057.91;5071082;28;20387;-78
2021/07/01 03:22:55;;;;;;;15.35;3.13;;;;;;;21.21;56.80;100056.22;5092075;27;20385;-79
2021/07/01 03:25:39;;;;;;;9.93;3.03;;;;;;;20.95;56.80;100053.47;5069906;28;20398;-79
2021/07/01 03:28:43;;;;;;;11.57;2.55;;;;;;;20.86;56.55;100062.91;5110953;27;20909;-79
2021/07/01 03:31:26;;;;;;;12.10;2.53;;;;;;;20.63;56.55;100071.47;5091262;27;20381;-80
2021/07/01 03:34:10;;;;;;;11.52;2.03;;;;;;;20.28;57.77;100065.28;5132394;27;20665;-79
2021/07/01 03:36:55;;;;;;;11.88;2.05;;;;;;;20.24;58.04;100063.19;5111617;27;20714;-78
2021/07/01 03:39:58;;;;;;;12.00;2.60;;;;;;;20.31;57.78;100064.03;5071140;28;20386;-80
2021/07/01 03:42:42;;;;;;;9.85;1.92;;;;;;;20.46;57.25;100062.00;5101699;27;1539055;-78
2021/07/01 03:45:23;;;;;;;5.70;1.92;;;;;;;20.58;57.13;100071.25;5071240;28;20383;-79
2021/07/01 03:48:05;;;;;;;10.73;2.28;;;;;;;20.65;56.53;100066.66;5071134;28;20397;-79
2021/07/01 03:50:53;;;;;;;8.50;2.13;;;;;;;20.60;56.72;100063.69;5071074;28;20391;-77
2021/07/01 03:53:47;;;;;;;10.10;1.95;;;;;;;20.71;56.39;100074.84;5071093;28;20393;-79
2021/07/01 03:56:41;;;;;;;11.00;2.17;;;;;;;20.69;56.83;100078.81;5071127;28;20386;-79
2021/07/01 03:59:31;;;;;;;9.35;2.25;;;;;;;20.63;56.59;100077.78;5132382;27;20322;-77
2021/07/01 04:02:47;;;;;;;11.30;2.10;;;;;;;20.56;57.02;100074.19;5110280;27;20705;-80
2021/07/01 04:05:33;;;;;;;7.30;1.88;;;;;;;20.67;56.56;100076.31;5069873;28;20746;-80
2021/07/01 04:08:18;;;;;;;11.27;2.40;;;;;;;20.72;56.73;100067.50;5071081;28;20393;-79
2021/07/01 04:11:22;;;;;;;11.02;2.17;;;;;;;20.89;56.80;100073.38;5111156;27;20391;-79
2021/07/01 04:14:05;;;;;;;6.57;1.88;;;;;;;21.14;56.23;100086.25;5111193;27;20878;-80
2021/07/01 04:17:12;;;;;;;6.47;1.92;;;;;;;21.39;55.44;100078.28;5070828;28;20386;-79
2021/07/01 04:20:18;;;;;;;11.68;2.63;;;;;;;21.75;54.65;100081.38;5111013;27;20387;-79
2021/07/01 04:23:23;;;;;;;10.50;2.20;;;;;;;22.02;53.32;100082.22;5111366;27;20383;-80
2021/07/01 04:26:24;;;;;;;12.70;2.10;;;;;;;22.07;53.07;100078.81;5071164;28;20390;-80
2021/07/01 04:29:08;;;;;;;10.20;2.63;;;;;;;22.16;52.95;100072.91;5070875;28;20393;-79
2021/07/01 04:31:53;;;;;;;12.95;2.30;;;;;;;22.40;52.56;100074.03;5071136;28;20389;-77
2021/07/01 04:34:36;;;;;;;13.98;2.10;;;;;;;22.69;51.84;100078.16;5111442;27;20380;-78
2021/07/01 04:37:21;;;;;;;9.20;2.30;;;;;;;23.03;51.24;100077.69;5111718;27;20380;-79
2021/07/01 04:40:08;;;;;;;11.75;2.15;;;;;;;23.48;50.15;100079.22;5071278;28;20397;-78
2021/07/01 04:42:55;;;;;;;8.98;1.88;;;;;;;23.82;49.21;100081.44;5091340;27;20729;-79
2021/07/01 04:45:39;;;;;;;10.07;1.83;;;;;;;24.23;48.46;100078.03;5071172;28;20386;-80
2021/07/01 04:48:24;;;;;;;9.68;2.42;;;;;;;24.68;47.15;100089.50;5070008;28;20927;-80
2021/07/01 04:51:09;;;;;;;10.07;2.13;;;;;;;24.79;46.99;100083.22;5070897;28;20383;-79
2021/07/01 04:54:31;;;;;;;13.38;2.47;;;;;;;25.38;45.43;100081.47;5071107;28;20383;-79
2021/07/01 04:57:30;;;;;;;9.50;2.28;;;;;;;25.93;44.64;100069.03;5132005;27;20124;-78
2021/07/01 05:00:15;;;;;;;9.25;1.80;;;;;;;26.16;44.14;100077.31;5070972;28;20737;-80
2021/07/01 05:03:39;;;;;;;9.90;2.10;;;;;;;26.18;43.46;100075.13;5070582;28;20397;-78
2021/07/01 05:06:23;;;;;;;12.00;1.98;;;;;;;26.43;43.90;100075.66;5070808;28;20393;-78
2021/07/01 05:09:09;;;;;;;15.38;2.30;;;;;;;26.66;43.21;100080.25;5111470;27;20382;-80
2021/07/01 05:11:51;;;;;;;11.35;1.98;;;;;;;27.16;42.64;100076.81;5071350;28;20736;-80
2021/07/01 05:14:35;;;;;;;11.27;2.33;;;;;;;27.99;40.76;100074.84;5111694;27;20386;-79
2021/07/01 05:17:20;;;;;;;10.38;2.20;;;;;;;28.54;39.60;100068.38;5070109;28;20409;-80
2021/07/01 05:20:05;;;;;;;12.20;2.25;;;;;;;29.49;37.88;100068.53;5111504;27;20870;-80
2021/07/01 05:22:51;;;;;;;9.40;2.13;;;;;;;30.09;36.60;100065.34;5071392;28;20390;-79
2021/07/01 05:25:53;;;;;;;7.18;1.88;;;;;;;31.09;35.40;100070.44;5152726;27;20887;-79
2021/07/01 05:28:58;;;;;;;10.25;2.40;;;;;;;32.58;32.52;100063.28;5071186;28;20393;-79
2021/07/01 05:31:57;;;;;;;5.93;1.75;;;;;;;33.91;30.43;100060.03;5152880;27;20902;-79
2021/07/01 05:35:16;;;;;;;8.48;2.20;;;;;;;35.68;28.36;100066.75;5070413;28;20410;-79
2021/07/01 05:38:27;;;;;;;12.18;2.13;;;;;;;36.62;27.74;100068.00;5052947;28;20405;-78
2021/07/01 05:41:12;;;;;;;9.73;2.95;;;;;;;37.33;26.07;100078.41;5070927;28;20397;-78
2021/07/01 05:43:55;;;;;;;11.23;2.38;;;;;;;39.31;25.05;100080.84;5071137;28;20405;-81
2021/07/01 05:46:59;;;;;;;13.45;2.05;;;;;;;40.58;22.92;100086.47;5111856;27;20388;-78
2021/07/01 05:49:43;;;;;;;12.50;2.65;;;;;;;40.22;23.12;100088.97;5111304;27;20396;-77
2021/07/01 05:52:30;;;;;;;9.00;2.55;;;;;;;41.07;22.53;100082.00;5111273;27;20388;-80
2021/07/01 05:55:14;;;;;;;7.22;1.90;;;;;;;41.62;21.95;100086.50;5111459;27;20380;-80
2021/07/01 05:57:57;;;;;;;9.77;2.03;;;;;;;43.22;20.46;100077.41;5110502;27;20388;-81
2021/07/01 06:00:41;;;;;;;10.57;2.00;;;;;;;42.29;20.96;100084.13;5071184;27;20387;-79
2021/07/01 06:03:25;;;;;;;7.55;2.13;;;;;;;42.98;20.65;100083.16;5071149;28;20390;-80
2021/07/01 06:06:19;;;;;;;9.10;2.40;;;;;;;44.13;20.00;100084.88;5094625;27;20385;-78
2021/07/01 06:09:42;;;;;;;15.15;2.88;;;;;;;44.92;18.83;100083.63;5111337;27;20376;-80
2021/07/01 06:12:30;;;;;;;9.20;2.55;;;;;;;45.18;18.92;100085.84;5056233;28;20396;-82
2021/07/01 06:15:15;;;;;;;12.00;2.70;;;;;;;45.67;19.09;100086.91;5129947;27;20124;-78
2021/07/01 06:18:01;;;;;;;8.32;2.30;;;;;;;45.84;18.00;100097.78;5173545;27;20320;-76
2021/07/01 06:20:45;;;;;;;6.82;2.17;;;;;;;46.00;18.16;100092.00;5111702;27;20386;-78
2021/07/01 06:23:30;;;;;;;9.50;2.55;;;;;;;46.63;17.60;100097.16;5090912;27;20397;-76
2021/07/01 06:26:16;;;;;;;9.73;2.53;;;;;;;45.75;18.72;100100.00;5067028;28;20387;-77
2021/07/01 06:28:56;;;;;;;8.75;2.30;;;;;;;45.98;18.56;100102.91;5066282;28;20924;-79
2021/07/01 06:31:41;;;;;;;12.85;2.20;;;;;;;47.25;17.40;100098.50;5067057;28;20378;-79
2021/07/01 06:34:25;;;;;;;10.65;2.15;;;;;;;47.07;17.02;100101.06;5107639;27;20716;-79
2021/07/01 06:37:30;;;;;;;7.28;2.20;;;;;;;47.87;16.69;100089.13;5067084;28;20757;-78
2021/07/01 06:40:34;;;;;;;9.10;2.33;;;;;;;48.13;16.12;100097.50;5068399;28;20137;-80
2021/07/01 06:43:34;;;;;;;9.40;2.58;;;;;;;48.25;16.21;100094.38;5070976;28;20409;-77
2021/07/01 06:46:36;;;;;;;8.32;2.20;;;;;;;49.58;15.31;100095.69;5071246;28;20379;-80
2021/07/01 06:49:39;;;;;;;6.68;2.30;;;;;;;50.57;14.83;100090.16;5111789;27;20893;-80
2021/07/01 06:52:45;;;;;;;14.45;2.80;;;;;;;49.28;15.60;100092.28;5049169;28;20390;-77
2021/07/01 06:55:51;;;;;;;10.48;2.30;;;;;;;50.04;15.20;100096.63;5069762;28;20389;-77
2021/07/01 06:58:39;;;;;;;8.30;2.45;;;;;;;51.52;14.13;100094.75;5110737;27;20386;-78
2021/07/01 07:01:19;;;;;;;10.40;2.45;;;;;;;51.38;14.42;100100.56;5110916;27;20381;-77
2021/07/01 07:04:03;;;;;;;7.57;2.30;;;;;;;50.22;15.16;100090.09;5070240;28;20885;-78
2021/07/01 07:06:48;;;;;;;8.88;2.00;;;;;;;52.49;13.30;100089.63;5070377;28;20386;-76
2021/07/01 07:09:32;;;;;;;7.70;2.10;;;;;;;51.82;13.99;100092.97;5071210;28;20719;-76
2021/07/01 07:12:16;;;;;;;11.93;2.50;;;;;;;51.60;14.07;100094.34;5071226;28;20397;-77
2021/07/01 07:14:56;;;;;;;7.43;2.58;;;;;;;50.63;15.35;100088.47;5071270;28;20391;-76
2021/07/01 07:17:37;;;;;;;9.38;2.58;;;;;;;51.48;14.25;100093.97;5099265;27;1603136;-76
2021/07/01 07:20:23;;;;;;;9.20;2.15;;;;;;;51.96;14.42;100094.94;5132017;27;20338;-77
2021/07/01 07:23:08;;;;;;;8.68;2.08;;;;;;;53.24;13.64;100092.53;5070860;28;20405;-82
2021/07/01 07:25:48;;;;;;;12.93;2.70;;;;;;;52.70;13.28;100093.53;5070964;28;20391;-77
2021/07/01 07:28:33;;;;;;;9.35;2.60;;;;;;;52.79;13.79;100094.69;5173031;27;20324;-76
2021/07/01 07:31:24;;;;;;;7.53;2.67;;;;;;;53.30;12.98;100087.97;5152364;27;20392;-76
2021/07/01 07:34:07;;;;;;;5.80;2.28;;;;;;;52.45;13.57;100083.09;5070885;28;20387;-77
2021/07/01 07:36:52;;;;;;;8.23;2.30;;;;;;;51.94;13.86;100094.56;5111008;27;20380;-76
2021/07/01 07:39:36;;;;;;;11.25;2.65;;;;;;;51.15;14.07;100093.28;5070594;28;20401;-76
2021/07/01 07:42:21;;;;;;;8.93;2.40;;;;;;;50.91;14.69;100096.22;5070881;28;20899;-76
2021/07/01 07:45:08;;;;;;;9.40;2.47;;;;;;;53.34;13.09;100094.44;5126947;27;20384;-77
2021/07/01 07:47:51;;;;;;;9.93;2.45;;;;;;;53.75;12.71;100098.03;5111291;27;20708;-76
2021/07/01 07:50:37;;;;;;;6.55;2.72;;;;;;;54.03;12.61;100087.38;5070627;28;20389;-76
2021/07/01 07:53:25;;;;;;;5.82;2.05;;;;;;;54.76;12.70;100090.19;5070819;28;20382;-76
2021/07/01 07:56:11;;;;;;;5.88;2.40;;;;;;;54.92;12.34;100091.13;5111328;27;20377;-78
2021/07/01 07:58:55;;;;;;;8.43;2.10;;;;;;;53.05;13.06;100084.56;5070849;28;20397;-76
2021/07/01 08:01:40;;;;;;;9.80;2.50;;;;;;;51.84;13.23;100084.78;5070805;28;20393;-76
2021/07/01 08:04:27;;;;;;;8.13;2.15;;;;;;;50.10;14.39;100082.75;5070774;28;20387;-78
2021/07/01 08:07:15;;;;;;;8.70;2.08;;;;;;;49.99;14.91;100081.91;5070836;28;20390;-77
2021/07/01 08:09:58;;;;;;;6.20;2.20;;;;;;;48.25;15.57;100080.13;5070826;28;20398;-77
2021/07/01 08:12:44;;;;;;;10.13;2.15;;;;;;;47.66;15.96;100069.75;5070452;28;20405;-77
2021/07/01 08:15:29;;;;;;;4.68;1.80;;;;;;;46.92;16.97;100071.63;5111126;27;20384;-76
2021/07/01 08:18:25;;;;;;;9.55;2.25;;;;;;;44.86;18.41;100078.66;5070470;28;20387;-76
2021/07/01 08:21:12;;;;;;;6.47;2.05;;;;;;;42.87;19.76;100068.66;5070716;28;20390;-75
2021/07/01 08:23:54;;;;;;;7.68;2.20;;;;;;;40.53;22.82;100075.41;5073700;27;1636364;-77
2021/07/01 08:26:39;;;;;;;7.40;2.20;;;;;;;38.87;24.67;100067.94;5070340;28;20394;-75
2021/07/01 08:29:24;;;;;;;7.68;1.92;;;;;;;37.24;26.22;100069.09;5110885;27;20388;-75
2021/07/01 08:32:06;;;;;;;10.02;2.20;;;;;;;35.31;28.34;100072.44;5070662;28;20741;-75
2021/07/01 08:35:12;;;;;;;7.22;2.30;;;;;;;34.36;29.78;100072.63;5071144;28;20393;-77
2021/07/01 08:38:03;;;;;;;12.50;2.90;;;;;;;34.57;30.00;100068.47;5111198;27;20383;-76
2021/07/01 08:40:49;;;;;;;10.05;2.00;;;;;;;35.11;29.32;100068.81;5070337;28;20833;-76
2021/07/01 08:43:41;;;;;;;6.45;2.00;;;;;;;35.13;28.97;100072.16;5070124;28;20409;-76
2021/07/01 08:46:29;;;;;;;7.90;2.22;;;;;;;34.81;29.62;100074.00;5070684;28;20869;-83
2021/07/01 08:49:35;;;;;;;8.27;2.33;;;;;;;33.98;29.82;100078.06;5070637;28;20379;-76
2021/07/01 08:52:28;;;;;;;7.20;2.00;;;;;;;33.04;31.36;100073.03;5172981;27;19951;-76
2021/07/01 08:55:18;;;;;;;8.90;2.25;;;;;;;33.36;31.03;100066.91;5111204;27;20368;-76
2021/07/01 08:57:59;;;;;;;13.27;2.35;;;;;;;33.45;31.16;100078.28;5070792;28;20378;-77
2021/07/01 09:00:44;;;;;;;11.90;2.40;;;;;;;32.92;31.93;100071.69;5070634;28;20738;-79
2021/07/01 09:03:28;;;;;;;9.93;2.50;;;;;;;32.59;32.68;100068.53;5070713;28;20393;-77
2021/07/01 09:06:24;;;;;;;10.40;2.05;;;;;;;32.49;32.41;100076.06;5070502;28;20390;-81
2021/07/01 09:09:11;;;;;;;12.45;2.60;;;;;;;32.12;33.68;100079.28;5152292;27;20432;-76
2021/07/01 09:11:52;;;;;;;14.20;2.13;;;;;;;32.14;33.27;100072.34;5070688;28;20745;-76
2021/07/01 09:14:38;;;;;;;10.82;2.38;;;;;;;32.21;33.84;100073.97;5070335;28;20889;-76
2021/07/01 09:17:29;;;;;;;12.40;2.58;;;;;;;32.42;33.35;100079.16;5070246;28;20387;-75
2021/07/01 09:20:18;;;;;;;8.15;1.55;;;;;;;32.06;33.16;100084.00;5070635;28;20382;-76
2021/07/01 09:22:57;;;;;;;11.43;2.17;;;;;;;32.28;33.01;100082.81;5071034;27;20391;-76
2021/07/01 09:25:42;;;;;;;11.38;2.00;;;;;;;32.43;32.49;100077.19;5111359;27;20380;-76
2021/07/01 09:28:26;;;;;;;9.07;2.33;;;;;;;32.56;32.63;100076.63;5111020;27;20870;-76
2021/07/01 09:31:15;;;;;;;8.02;1.95;;;;;;;32.81;32.20;100073.72;5070448;28;20393;-77
2021/07/01 09:33:55;;;;;;;8.25;1.90;;;;;;;32.42;32.29;100083.91;5111477;27;20380;-76
2021/07/01 09:36:35;;;;;;;14.77;2.75;;;;;;;31.55;32.83;100071.31;5070958;28;20432;-77
2021/07/01 09:39:22;;;;;;;11.73;2.20;;;;;;;31.23;33.85;100076.28;5070432;28;20387;-77
2021/07/01 09:42:15;;;;;;;8.10;2.15;;;;;;;31.43;34.01;100071.53;5090636;27;20389;-76
2021/07/01 09:45:04;;;;;;;7.93;2.42;;;;;;;31.32;34.63;100072.66;5070790;28;20391;-73
2021/07/01 09:47:54;;;;;;;9.68;2.65;;;;;;;31.44;34.45;100070.47;5070372;28;20446;-77
2021/07/01 09:50:50;;;;;;;9.48;2.13;;;;;;;31.47;34.64;100078.25;5070788;28;20729;-76
2021/07/01 09:53:37;;;;;;;8.95;2.35;;;;;;;31.27;34.32;100069.91;5070737;28;20379;-75
2021/07/01 09:56:37;;;;;;;9.75;2.10;;;;;;;31.56;33.92;100077.66;5070469;28;20881;-77
2021/07/01 09:59:24;;;;;;;6.38;1.80;;;;;;;31.76;33.66;100067.38;5070487;28;20741;-77
2021/07/01 10:02:19;;;;;;;11.80;2.63;;;;;;;31.93;33.49;100069.84;5070824;28;20398;-76
2021/07/01 10:05:00;;;;;;;5.60;1.88;;;;;;;31.74;33.59;100060.44;5070725;28;20401;-76
2021/07/01 10:07:49;;;;;;;6.60;2.00;;;;;;;31.86;32.84;100067.38;5111085;27;20874;-76
2021/07/01 10:10:48;;;;;;;8.80;2.10;;;;;;;31.71;32.71;100063.78;5173714;27;20122;-77
2021/07/01 10:13:34;;;;;;;10.55;2.15;;;;;;;31.91;33.30;100052.63;5070635;28;20739;-77
2021/07/01 10:16:29;;;;;;;8.88;2.55;;;;;;;31.82;33.72;100059.88;5070533;28;20393;-79
2021/07/01 10:19:21;;;;;;;7.43;2.10;;;;;;;31.96;32.44;100058.19;5070826;28;20382;-77
2021/07/01 10:22:08;;;;;;;6.38;1.80;;;;;;;32.17;33.02;100041.19;5111121;27;20384;-77
2021/07/01 10:24:58;;;;;;;8.75;2.38;;;;;;;32.12;32.91;100046.75;5131497;27;20331;-77
2021/07/01 10:27:43;;;;;;;5.65;2.13;;;;;;;31.70;33.70;100037.97;5173595;27;20316;-77
2021/07/01 10:30:28;;;;;;;8.00;2.25;;;;;;;31.74;33.95;100046.56;5070789;28;20394;-76
2021/07/01 10:33:23;;;;;;;8.70;2.60;;;;;;;31.96;33.94;100052.63;5070451;28;20379;-74
2021/07/01 10:36:38;;;;;;;11.07;2.70;;;;;;;31.79;33.63;100043.78;5101778;27;1514763;-75
2021/07/01 10:39:28;;;;;;;10.25;3.08;;;;;;;31.45;33.43;100040.78;5070905;28;20386;-76
2021/07/01 10:42:14;;;;;;;9.90;2.67;;;;;;;31.40;33.62;100046.31;5173773;27;20805;-76
2021/07/01 10:45:13;;;;;;;11.23;2.22;;;;;;;31.15;33.98;100038.81;5152258;27;20454;-76
2021/07/01 10:48:09;;;;;;;9.15;2.20;;;;;;;30.75;34.96;100038.75;5070926;28;20391;-76
2021/07/01 10:50:54;;;;;;;9.25;2.00;;;;;;;30.64;35.22;100040.66;5070509;28;20398;-76
2021/07/01 10:53:42;;;;;;;14.88;2.70;;;;;;;30.79;34.54;100046.22;5070512;28;20395;-75
2021/07/01 10:56:39;;;;;;;;;;;;;;;30.68;34.68;100047.31;5050511;27;2278209;-74
2021/07/01 10:59:23;;;;;;;6.38;1.88;;;;;;;30.74;35.09;100042.59;5070549;28;20733;-77
2021/07/01 11:02:08;;;;;;;6.93;2.10;;;;;;;30.87;35.22;100036.53;5070557;28;20386;-77
2021/07/01 11:04:59;;;;;;;8.63;2.50;;;;;;;31.02;35.01;100044.91;5070634;28;20386;-76
2021/07/01 11:07:45;;;;;;;9.38;2.03;;;;;;;30.94;34.40;100039.09;5111070;27;20742;-76
2021/07/01 11:10:40;;;;;;;14.30;2.40;;;;;;;31.03;34.16;100037.44;5070443;28;20386;-76
2021/07/01 11:13:27;;;;;;;9.75;1.92;;;;;;;31.12;34.53;100036.59;5132193;27;20330;-77
2021/07/01 11:16:15;;;;;;;14.23;2.75;;;;;;;31.19;34.29;100025.22;5111300;27;20740;-76
2021/07/01 11:18:55;;;;;;;9.55;2.15;;;;;;;31.31;34.65;100021.06;5070923;28;20390;-76
2021/07/01 11:21:46;;;;;;;9.00;2.38;;;;;;;31.31;35.01;100021.06;5091047;27;20389;-76
2021/07/01 11:24:30;;;;;;;7.07;1.80;;;;;;;31.35;34.35;100016.63;5070910;28;20722;-80
2021/07/01 11:27:09;;;;;;;11.20;1.80;;;;;;;31.47;34.55;100025.53;5070960;28;20882;-76
2021/07/01 11:29:53;;;;;;;7.78;1.63;;;;;;;31.41;34.45;100021.06;5070503;28;20394;-77
2021/07/01 11:32:37;;;;;;;10.80;2.15;;;;;;;31.12;34.23;100019.97;5070740;28;20379;-77
2021/07/01 11:35:24;;;;;;;8.00;1.70;;;;;;;31.00;34.42;100013.03;5111440;27;20387;-75
2021/07/01 11:38:31;;;;;;;8.20;2.13;;;;;;;30.93;34.83;100020.78;5111406;27;20380;-76
2021/07/01 11:41:13;;;;;;;9.52;2.05;;;;;;;31.03;34.42;100016.09;5070949;28;20413;-76
2021/07/01 11:43:58;;;;;;;11.40;1.92;;;;;;;31.03;33.72;100018.03;5070874;28;20389;-76
2021/07/01 11:46:43;;;;;;;10.25;2.40;;;;;;;31.11;33.61;100014.69;5111337;27;20380;-76
2021/07/01 11:49:24;;;;;;;6.95;2.10;;;;;;;31.25;33.01;100011.09;5070960;28;20741;-76
2021/07/01 11:52:10;;;;;;;8.00;1.90;;;;;;;31.40;32.81;100010.25;5070809;28;20386;-76
2021/07/01 11:54:55;;;;;;;7.25;1.90;;;;;;;31.30;32.28;100007.47;5070649;28;20386;-76
2021/07/01 11:57:40;;;;;;;7.47;2.03;;;;;;;31.09;32.35;100000.25;5070554;28;20397;-75
2021/07/01 12:00:24;;;;;;;12.93;2.40;;;;;;;31.04;32.68;100003.03;5102318;27;1502781;-77
2021/07/01 12:03:06;;;;;;;5.50;1.73;;;;;;;30.92;33.01;99994.16;5071019;28;20395;-76
2021/07/01 12:05:52;;;;;;;8.80;1.55;;;;;;;31.10;32.42;100004.72;5110957;27;20376;-76
2021/07/01 12:08:36;;;;;;;9.25;1.92;;;;;;;31.10;32.63;99996.38;5070575;28;20397;-76
2021/07/01 12:11:19;;;;;;;11.65;1.83;;;;;;;31.23;32.59;99995.84;5070679;28;20379;-80
2021/07/01 12:14:33;;;;;;;14.88;2.60;;;;;;;31.10;32.89;99996.38;5091040;27;20381;-76
2021/07/01 12:17:51;;;;;;;8.13;2.13;;;;;;;31.31;31.99;99998.88;5111098;27;20376;-76
2021/07/01 12:20:54;;;;;;;8.32;1.73;;;;;;;31.34;31.02;99990.00;5070980;28;20401;-75
2021/07/01 12:23:44;;;;;;;10.95;2.05;;;;;;;31.37;31.66;99994.16;5070921;28;20394;-76
2021/07/01 12:26:39;;;;;;;6.93;1.55;;;;;;;31.12;30.67;99991.38;5070846;28;20383;-77
2021/07/01 12:29:47;;;;;;;5.07;1.70;;;;;;;31.20;31.20;99986.13;5051094;28;20388;-76
2021/07/01 12:32:33;;;;;;;10.15;1.50;;;;;;;31.34;31.31;99981.66;5070797;28;20382;-76
2021/07/01 12:35:39;;;;;;;7.70;1.48;;;;;;;31.57;31.16;99984.97;5070866;28;20393;-76
2021/07/01 12:38:20;;;;;;;5.90;1.55;;;;;;;31.81;30.40;99986.03;5111034;27;20384;-76
2021/07/01 12:41:07;;;;;;;10.35;1.75;;;;;;;32.00;29.75;99985.16;5080200;27;1460418;-74
2021/07/01 12:43:54;;;;;;;9.15;1.50;;;;;;;32.10;29.59;99975.94;5070826;28;20387;-76
2021/07/01 12:46:42;;;;;;;4.18;1.30;;;;;;;32.25;30.10;99992.53;5066163;27;1839542;-76
2021/07/01 12:49:26;;;;;;;5.65;1.60;;;;;;;32.34;29.70;99982.50;5070747;28;20389;-77
2021/07/01 12:52:13;;;;;;;8.15;1.38;;;;;;;32.14;29.45;99989.00;5100423;27;1564020;-76
2021/07/01 12:54:55;;;;;;;7.30;1.40;;;;;;;32.02;30.13;99982.09;5091223;27;20391;-75
2021/07/01 12:57:39;;;;;;;5.88;1.75;;;;;;;32.20;30.48;99975.06;5070768;28;20729;-76
2021/07/01 13:00:20;;;;;;;6.32;1.75;;;;;;;32.37;30.57;99975.53;5070919;28;20398;-74
2021/07/01 13:03:04;;;;;;;7.10;1.60;;;;;;;32.27;30.88;99970.84;5152578;27;20849;-76
2021/07/01 13:05:54;;;;;;;6.88;1.50;;;;;;;32.26;31.02;99969.22;5070552;28;20386;-76
2021/07/01 13:08:39;;;;;;;7.88;1.88;;;;;;;32.30;30.27;99964.72;5173674;27;20380;-76